Time;durP1;ratioP1;P1;durP2;ratioP2;P2;SDS_P1;SDS_P2;PMS_P1;PMS_P2;Temp;Humidity;BMP_temperature;BMP_pressure;BME280_temperature;BME280_humidity;BME280_pressure;Samples;Min_cycle;Max_cycle;Signal;HPM_P1;HPM_P2
2023/05/17 07:13:49;;;;;;;7.73;2.47;;;18.30;99.90;;;;;;3326200;23;20593;-75
2023/05/17 07:16:16;;;;;;;7.97;1.75;;;18.30;99.90;;;;;;4974488;28;20299;-76
2023/05/17 07:18:43;;;;;;;5.75;1.90;;;18.80;99.90;;;;;;4975183;28;20218;-75
2023/05/17 07:21:10;;;;;;;4.50;1.73;;;19.40;99.90;;;;;;4975047;28;20314;-76
2023/05/17 07:23:37;;;;;;;6.82;1.85;;;19.30;99.90;;;;;;4974980;28;20207;-76
2023/05/17 07:26:04;;;;;;;4.50;1.50;;;18.80;99.90;;;;;;4974981;28;20646;-76
2023/05/17 07:28:31;;;;;;;5.63;1.50;;;18.10;99.90;;;;;;4975023;28;20314;-76
2023/05/17 07:31:00;;;;;;;4.17;1.70;;;17.60;99.90;;;;;;4974938;28;20238;-75
2023/05/17 07:33:27;;;;;;;6.35;1.83;;;18.40;99.90;;;;;;4974965;28;20243;-75
2023/05/17 07:35:54;;;;;;;6.22;2.00;;;18.90;99.90;;;;;;4974903;28;20203;-76
2023/05/17 07:38:21;;;;;;;6.13;1.20;;;19.30;99.90;;;;;;4975722;28;20206;-72
2023/05/17 07:40:48;;;;;;;4.93;1.42;;;19.40;99.90;;;;;;4992279;28;20334;-72
2023/05/17 07:43:15;;;;;;;6.78;1.70;;;18.90;99.90;;;;;;4992450;28;20293;-75
2023/05/17 07:45:43;;;;;;;12.83;4.20;;;18.50;99.90;;;;;;4991823;28;20252;-74
2023/05/17 07:48:11;;;;;;;8.85;1.75;;;18.10;99.90;;;;;;4984684;28;20253;-73
2023/05/17 07:50:38;;;;;;;6.75;2.05;;;18.50;99.90;;;;;;4971976;28;20281;-72
2023/05/17 07:53:05;;;;;;;5.10;2.00;;;19.10;99.90;;;;;;4971903;28;20268;-72
2023/05/17 07:55:32;;;;;;;5.07;1.50;;;19.20;99.90;;;;;;4972856;28;20570;-72
2023/05/17 07:57:59;;;;;;;3.88;1.95;;;19.50;99.90;;;;;;4972984;28;20211;-72
2023/05/17 08:00:26;;;;;;;4.45;1.83;;;20.00;99.90;;;;;;4972260;28;20646;-73
2023/05/17 08:02:53;;;;;;;5.78;1.98;;;20.40;99.90;;;;;;4973051;28;20268;-73
2023/05/17 08:05:22;;;;;;;4.78;1.80;;;20.50;99.90;;;;;;4972515;28;20282;-73
2023/05/17 08:07:49;;;;;;;10.10;2.75;;;19.50;99.90;;;;;;4971738;28;20207;-73
2023/05/17 08:10:16;;;;;;;5.00;1.85;;;18.90;99.90;;;;;;4972730;28;20286;-75
2023/05/17 08:12:43;;;;;;;4.45;1.85;;;19.10;99.90;;;;;;4973086;28;20681;-73
2023/05/17 08:15:11;;;;;;;5.40;1.95;;;18.90;99.90;;;;;;4972045;28;20269;-74
2023/05/17 08:17:38;;;;;;;4.03;1.75;;;18.60;99.90;;;;;;4972652;28;20289;-74
2023/05/17 08:20:06;;;;;;;5.57;2.23;;;18.20;99.90;;;;;;4972775;28;20267;-77
2023/05/17 08:22:35;;;;;;;3.60;1.90;;;17.70;99.90;;;;;;4972618;28;20211;-77
2023/05/17 08:25:02;;;;;;;5.83;1.70;;;17.20;99.90;;;;;;4972818;28;20731;-77
2023/05/17 08:27:31;;;;;;;6.40;2.00;;;17.60;99.90;;;;;;4972459;28;20207;-77
2023/05/17 08:29:58;;;;;;;5.35;1.50;;;18.30;99.90;;;;;;4972211;28;20244;-77
2023/05/17 08:32:27;;;;;;;3.05;1.52;;;18.20;99.90;;;;;;4972656;28;20721;-76
2023/05/17 08:34:54;;;;;;;5.57;1.30;;;18.40;99.90;;;;;;4972105;28;20207;-78
2023/05/17 08:37:21;;;;;;;5.63;1.65;;;18.90;99.90;;;;;;4969958;28;20634;-76
2023/05/17 08:39:50;;;;;;;2.58;1.05;;;18.90;99.90;;;;;;4971342;28;20737;-76
2023/05/17 08:42:21;;;;;;;4.77;1.30;;;18.70;99.90;;;;;;4972117;28;20233;-74
2023/05/17 08:44:49;;;;;;;4.85;1.10;;;18.60;99.90;;;;;;4984040;28;20206;-72
2023/05/17 08:47:24;;;;;;;1.80;0.68;;;19.30;99.90;;;;;;4989482;28;20634;-75
2023/05/17 08:49:52;;;;;;;4.75;0.98;;;19.20;99.40;;;;;;4972498;28;20274;-74
2023/05/17 08:52:18;;;;;;;3.30;1.10;;;19.20;99.40;;;;;;4971941;28;20263;-73
2023/05/17 08:54:46;;;;;;;2.97;1.00;;;18.40;99.70;;;;;;4973098;28;20207;-74
2023/05/17 08:57:16;;;;;;;3.70;0.73;;;18.20;99.90;;;;;;4986066;28;20225;-74
2023/05/17 08:59:45;;;;;;;1.87;0.80;;;18.10;99.90;;;;;;4973228;28;20211;-74
2023/05/17 09:02:14;;;;;;;2.47;1.10;;;18.00;99.90;;;;;;4973863;28;20275;-74
2023/05/17 09:04:41;;;;;;;2.63;1.00;;;17.90;99.90;;;;;;4977141;28;20670;-75
2023/05/17 09:07:08;;;;;;;6.33;1.60;;;17.80;99.90;;;;;;4977512;28;20314;-77
2023/05/17 09:09:35;;;;;;;4.03;1.17;;;17.70;99.90;;;;;;4977072;28;20273;-76
2023/05/17 09:12:03;;;;;;;3.87;1.37;;;17.30;99.90;;;;;;4976944;28;20701;-75
2023/05/17 09:14:35;;;;;;;3.50;1.07;;;17.20;99.90;;;;;;4977078;28;20298;-75
2023/05/17 09:17:02;;;;;;;2.00;0.70;;;17.10;99.90;;;;;;4977302;28;20211;-75
2023/05/17 09:19:31;;;;;;;4.80;1.57;;;17.40;99.90;;;;;;4977310;28;20460;-75
2023/05/17 09:22:01;;;;;;;2.90;1.00;;;18.40;99.90;;;;;;4976978;28;20238;-73
2023/05/17 09:24:30;;;;;;;2.60;0.98;;;19.00;99.40;;;;;;4977150;28;20207;-75
2023/05/17 09:27:02;;;;;;;5.40;0.95;;;19.70;99.40;;;;;;4976919;28;20657;-75
2023/05/17 09:29:31;;;;;;;2.53;0.88;;;20.30;98.80;;;;;;4977124;28;20234;-75
2023/05/17 09:32:15;;;;;;;4.07;1.00;;;20.90;97.30;;;;;;4976977;28;20238;-74
2023/05/17 09:34:44;;;;;;;2.80;0.73;;;21.10;96.40;;;;;;4976917;28;20211;-75
2023/05/17 09:37:15;;;;;;;4.05;0.88;;;20.70;97.10;;;;;;4976670;28;20215;-74
2023/05/17 09:39:43;;;;;;;3.85;0.90;;;20.40;95.90;;;;;;4976902;28;20303;-74
2023/05/17 09:42:10;;;;;;;1.98;0.77;;;20.00;96.20;;;;;;4976783;28;20227;-73
2023/05/17 09:44:49;;;;;;;2.78;1.08;;;19.90;97.00;;;;;;4976875;28;20367;-75
2023/05/17 09:47:28;;;;;;;1.92;0.65;;;19.90;96.10;;;;;;4976665;28;20215;-73
2023/05/17 09:49:57;;;;;;;1.63;1.02;;;20.00;97.00;;;;;;4976285;28;20239;-73
2023/05/17 09:52:25;;;;;;;6.55;1.25;;;20.20;96.30;;;;;;4976250;28;20447;-73
2023/05/17 09:54:54;;;;;;;5.07;1.05;;;20.40;97.70;;;;;;4976363;28;20214;-74
2023/05/17 09:57:21;;;;;;;7.70;1.33;;;20.00;96.20;;;;;;4976513;28;20234;-76
2023/05/17 09:59:49;;;;;;;4.03;0.90;;;19.40;97.40;;;;;;4976221;28;20274;-76
2023/05/17 10:02:21;;;;;;;1.98;0.90;;;19.20;98.30;;;;;;4976153;28;20270;-76
2023/05/17 10:04:51;;;;;;;2.75;0.82;;;19.20;98.10;;;;;;4975929;28;20203;-75
2023/05/17 10:07:21;;;;;;;3.40;1.02;;;19.20;98.20;;;;;;4976060;28;20238;-76
2023/05/17 10:09:49;;;;;;;3.00;0.90;;;18.80;98.00;;;;;;4975774;28;20230;-75
2023/05/17 10:12:19;;;;;;;3.93;1.17;;;18.50;98.80;;;;;;4975911;28;20227;-77
2023/05/17 10:14:46;;;;;;;1.30;0.77;;;18.50;98.00;;;;;;4975680;28;20234;-75
2023/05/17 10:17:15;;;;;;;2.17;0.87;;;18.40;98.20;;;;;;4976134;28;20245;-75
2023/05/17 10:19:43;;;;;;;4.73;1.10;;;18.10;98.00;;;;;;4976058;28;20207;-76
2023/05/17 10:22:13;;;;;;;2.93;0.87;;;17.70;98.30;;;;;;4975854;28;20710;-75
2023/05/17 10:24:40;;;;;;;2.57;0.83;;;17.70;99.00;;;;;;4975872;28;20603;-76
2023/05/17 10:27:08;;;;;;;4.43;0.87;;;18.00;99.20;;;;;;4975893;28;20207;-76
2023/05/17 10:29:36;;;;;;;2.13;0.70;;;18.30;97.50;;;;;;4975536;28;20657;-76
2023/05/17 10:32:06;;;;;;;2.93;0.90;;;18.20;97.70;;;;;;4976006;28;20645;-76
2023/05/17 10:34:34;;;;;;;3.17;0.97;;;17.90;97.50;;;;;;4976008;28;20211;-75
2023/05/17 10:37:03;;;;;;;5.17;0.70;;;17.80;97.40;;;;;;4975652;28;20218;-76
2023/05/17 10:39:33;;;;;;;3.17;0.90;;;17.60;98.30;;;;;;4975616;28;20241;-75
2023/05/17 10:42:02;;;;;;;2.80;0.90;;;17.80;97.70;;;;;;4975405;28;20243;-75
2023/05/17 10:44:32;;;;;;;4.47;0.70;;;17.80;97.40;;;;;;4975162;28;20249;-75
2023/05/17 10:47:00;;;;;;;2.97;0.83;;;17.50;97.70;;;;;;4975428;28;20203;-75
2023/05/17 10:49:31;;;;;;;6.37;0.70;;;17.60;97.90;;;;;;4975451;28;20262;-76
2023/05/17 10:51:58;;;;;;;2.37;0.70;;;17.50;97.50;;;;;;4975439;28;20263;-76
2023/05/17 10:54:37;;;;;;;3.53;0.70;;;17.40;98.30;;;;;;4975283;28;20712;-75
2023/05/17 10:57:05;;;;;;;1.80;0.77;;;17.40;98.70;;;;;;4975688;28;20207;-76
2023/05/17 10:59:34;;;;;;;3.20;0.90;;;17.50;98.50;;;;;;4975456;28;20666;-76
2023/05/17 11:02:03;;;;;;;3.00;1.00;;;18.00;98.60;;;;;;4975136;28;20705;-77
2023/05/17 11:04:34;;;;;;;2.73;0.80;;;18.40;98.60;;;;;;4975122;28;20238;-73
2023/05/17 11:07:23;;;;;;;2.07;0.70;;;18.50;97.60;;;;;;4974788;28;20239;-76
2023/05/17 11:09:54;;;;;;;3.23;0.93;;;18.60;97.20;;;;;;4975091;28;20227;-74
2023/05/17 11:12:33;;;;;;;5.27;0.90;;;18.50;97.20;;;;;;4975114;28;20220;-77
2023/05/17 11:15:00;;;;;;;2.53;0.80;;;18.10;97.10;;;;;;4974831;28;20219;-74
2023/05/17 11:17:34;;;;;;;3.90;0.97;;;18.10;97.90;;;;;;4974672;28;20768;-74
2023/05/17 11:20:10;;;;;;;4.93;0.90;;;18.10;97.30;;;;;;4974858;28;20239;-75
2023/05/17 11:22:41;;;;;;;2.40;0.70;;;18.00;98.10;;;;;;4974991;28;20257;-74
2023/05/17 11:25:11;;;;;;;2.87;0.60;;;18.00;97.00;;;;;;4974557;28;20685;-75
2023/05/17 11:27:44;;;;;;;5.00;0.90;;;18.10;97.40;;;;;;4974606;28;20650;-75
2023/05/17 11:30:21;;;;;;;2.97;0.70;;;17.90;97.50;;;;;;4974675;28;20235;-74
2023/05/17 11:32:50;;;;;;;4.00;0.70;;;17.90;96.40;;;;;;4974831;28;20207;-73
2023/05/17 11:35:18;;;;;;;1.80;0.60;;;17.60;96.70;;;;;;4974557;28;20233;-73
2023/05/17 11:37:46;;;;;;;4.17;0.80;;;17.70;97.30;;;;;;4974458;28;20297;-73
2023/05/17 11:40:26;;;;;;;2.33;0.93;;;17.70;95.20;;;;;;4974218;28;20207;-74
2023/05/17 11:43:11;;;;;;;3.27;0.60;;;17.50;96.20;;;;;;4974762;28;20277;-74
2023/05/17 11:45:47;;;;;;;3.53;0.70;;;17.20;96.60;;;;;;4974396;28;20203;-74
2023/05/17 11:48:14;;;;;;;5.07;0.67;;;17.30;95.90;;;;;;4974454;28;20298;-74
2023/05/17 11:50:42;;;;;;;1.87;0.63;;;17.40;95.70;;;;;;4974117;28;20298;-74
2023/05/17 11:53:09;;;;;;;3.30;0.47;;;17.40;96.00;;;;;;4974355;28;20296;-74
2023/05/17 11:55:40;;;;;;;3.17;0.70;;;17.40;96.70;;;;;;4974134;28;20298;-74
2023/05/17 11:58:09;;;;;;;2.33;0.60;;;17.30;96.20;;;;;;4974598;28;20231;-74
2023/05/17 12:00:37;;;;;;;1.67;0.57;;;17.40;96.00;;;;;;4973841;28;20224;-75
2023/05/17 12:03:19;;;;;;;2.33;0.73;;;17.30;95.90;;;;;;4973842;28;20693;-75
2023/05/17 12:05:48;;;;;;;2.67;0.60;;;17.50;96.30;;;;;;4973951;28;20250;-74
2023/05/17 12:08:17;;;;;;;3.37;0.80;;;17.60;96.00;;;;;;4974136;28;20246;-75
2023/05/17 12:10:50;;;;;;;5.67;1.40;;;17.40;96.10;;;;;;4974042;28;20243;-75
2023/05/17 12:13:18;;;;;;;2.17;0.90;;;17.30;96.30;;;;;;4973629;28;20253;-74
2023/05/17 12:15:55;;;;;;;4.30;0.77;;;17.40;96.40;;;;;;4973927;28;20252;-74
2023/05/17 12:18:22;;;;;;;3.10;0.80;;;17.50;95.90;;;;;;4973943;28;20293;-75
2023/05/17 12:20:59;;;;;;;3.33;0.63;;;17.60;96.00;;;;;;4973827;28;20657;-75
2023/05/17 12:23:28;;;;;;;2.57;0.67;;;17.40;96.10;;;;;;4973769;28;20293;-74
2023/05/17 12:26:15;;;;;;;7.87;0.97;;;17.20;96.20;;;;;;4973927;28;20214;-75
2023/05/17 12:28:43;;;;;;;2.50;0.73;;;17.20;96.10;;;;;;4974246;28;20209;-76
2023/05/17 12:31:12;;;;;;;5.30;0.80;;;17.30;96.50;;;;;;4973831;28;20277;-76
2023/05/17 12:33:41;;;;;;;3.40;0.97;;;17.50;95.70;;;;;;4973856;28;20254;-74
2023/05/17 12:36:09;;;;;;;3.20;0.70;;;17.70;96.00;;;;;;4973809;28;20249;-76
2023/05/17 12:38:39;;;;;;;2.10;0.57;;;17.80;96.10;;;;;;4977551;28;20243;-75
2023/05/17 12:41:08;;;;;;;5.20;0.83;;;17.80;94.60;;;;;;4977875;28;20318;-75
2023/05/17 12:43:38;;;;;;;5.10;0.67;;;17.30;95.00;;;;;;4978005;28;20239;-75
2023/05/17 12:46:10;;;;;;;1.90;0.57;;;17.30;96.10;;;;;;4977883;28;20289;-75
2023/05/17 12:48:37;;;;;;;3.33;0.77;;;17.50;95.50;;;;;;4977494;28;20214;-75
2023/05/17 12:51:08;;;;;;;3.47;0.57;;;17.70;96.30;;;;;;4977224;28;20330;-75
2023/05/17 12:53:36;;;;;;;1.93;0.50;;;18.00;96.00;;;;;;4977751;28;20249;-75
2023/05/17 12:56:04;;;;;;;3.77;0.80;;;18.00;95.40;;;;;;4977567;28;20211;-75
2023/05/17 12:58:31;;;;;;;2.57;0.60;;;17.90;94.80;;;;;;4977591;28;20211;-75
2023/05/17 13:01:05;;;;;;;2.03;0.50;;;17.90;94.90;;;;;;4977547;28;20657;-75
2023/05/17 13:03:32;;;;;;;2.67;0.60;;;17.90;95.50;;;;;;4977313;28;20565;-75
2023/05/17 13:06:04;;;;;;;1.93;1.00;;;17.90;95.30;;;;;;4977346;28;20621;-75
2023/05/17 13:08:32;;;;;;;2.53;0.77;;;17.70;95.30;;;;;;4977211;28;20298;-74
2023/05/17 13:11:09;;;;;;;2.13;0.53;;;17.50;94.30;;;;;;4985113;23;20347;-76
2023/05/17 13:13:37;;;;;;;2.07;0.70;;;17.50;94.30;;;;;;4958064;28;20219;-75
2023/05/17 13:16:05;;;;;;;1.63;0.67;;;17.50;95.00;;;;;;4957555;28;20607;-75
2023/05/17 13:18:48;;;;;;;2.70;0.80;;;17.60;94.50;;;;;;4958105;29;20259;-76
2023/05/17 13:21:15;;;;;;;2.53;0.57;;;17.30;95.20;;;;;;4957748;28;20232;-76
2023/05/17 13:23:46;;;;;;;3.47;0.63;;;17.00;95.10;;;;;;4957707;29;20242;-76
2023/05/17 13:26:13;;;;;;;1.90;0.90;;;17.00;95.70;;;;;;4957942;28;20295;-75
2023/05/17 13:28:40;;;;;;;2.90;0.60;;;17.00;96.00;;;;;;4957695;28;20244;-74
2023/05/17 13:31:08;;;;;;;3.13;0.53;;;17.10;95.20;;;;;;4957623;28;20372;-76
2023/05/17 13:33:35;;;;;;;3.20;1.00;;;17.10;95.10;;;;;;4957845;28;20271;-76
2023/05/17 13:36:03;;;;;;;2.80;0.80;;;17.10;95.00;;;;;;4957710;28;20283;-76
2023/05/17 13:38:29;;;;;;;1.50;0.50;;;17.10;94.70;;;;;;4957648;28;20287;-76
2023/05/17 13:40:56;;;;;;;2.17;0.60;;;17.30;94.00;;;;;;4957406;29;20270;-76
2023/05/17 13:43:23;;;;;;;1.70;0.57;;;17.30;94.30;;;;;;4957527;28;20235;-76
2023/05/17 13:45:55;;;;;;;2.37;0.80;;;17.40;93.60;;;;;;4958093;28;20239;-76
2023/05/17 13:48:23;;;;;;;2.60;0.70;;;17.40;93.10;;;;;;4956851;28;20209;-76
2023/05/17 13:50:51;;;;;;;3.03;0.70;;;17.50;94.50;;;;;;4957145;28;20267;-75
2023/05/17 13:53:18;;;;;;;4.00;0.80;;;17.70;94.20;;;;;;4957198;28;20568;-75
2023/05/17 13:55:44;;;;;;;2.73;0.70;;;17.70;94.40;;;;;;4956890;28;20230;-75
2023/05/17 13:58:12;;;;;;;1.87;0.60;;;17.60;94.70;;;;;;4957562;28;20295;-75
2023/05/17 14:00:41;;;;;;;1.43;0.70;;;17.60;94.90;;;;;;4957123;28;20286;-74
2023/05/17 14:03:08;;;;;;;1.87;0.60;;;17.80;94.00;;;;;;4957260;29;20263;-74
2023/05/17 14:05:37;;;;;;;0.90;0.43;;;18.10;93.80;;;;;;4957432;28;20212;-75
2023/05/17 14:08:04;;;;;;;1.10;0.60;;;18.20;93.70;;;;;;4957076;28;20235;-76
2023/05/17 14:10:30;;;;;;;2.13;0.67;;;18.30;94.20;;;;;;4956620;28;20264;-75
2023/05/17 14:12:57;;;;;;;2.03;0.80;;;18.40;94.50;;;;;;4957057;29;20239;-75
2023/05/17 14:15:26;;;;;;;1.47;0.60;;;18.50;94.30;;;;;;4956881;28;20246;-76
2023/05/17 14:17:53;;;;;;;3.20;0.80;;;18.20;94.60;;;;;;4956755;28;20568;-75
2023/05/17 14:20:20;;;;;;;2.00;0.63;;;17.80;95.10;;;;;;4956981;28;20240;-75
2023/05/17 14:22:48;;;;;;;3.57;0.87;;;17.70;95.20;;;;;;4956949;28;20275;-75
2023/05/17 14:25:15;;;;;;;2.60;0.67;;;17.80;95.20;;;;;;4956942;28;20251;-75
2023/05/17 14:27:42;;;;;;;3.80;0.70;;;17.60;94.40;;;;;;4956938;28;20208;-75
2023/05/17 14:30:10;;;;;;;2.23;0.70;;;17.40;94.90;;;;;;4956560;28;20208;-76
2023/05/17 14:32:37;;;;;;;5.37;0.90;;;17.50;94.60;;;;;;4956864;28;20587;-75
2023/05/17 14:35:06;;;;;;;3.33;0.60;;;17.50;94.70;;;;;;4956984;28;20216;-76
2023/05/17 14:37:33;;;;;;;2.43;0.90;;;17.70;94.10;;;;;;4956752;29;20212;-75
2023/05/17 14:40:02;;;;;;;3.13;0.53;;;17.80;94.50;;;;;;4956643;28;20723;-75
2023/05/17 14:42:29;;;;;;;4.23;0.70;;;17.80;95.00;;;;;;4956164;28;20228;-75
2023/05/17 14:44:56;;;;;;;2.80;0.57;;;17.50;95.20;;;;;;4956230;28;20705;-75
2023/05/17 14:47:23;;;;;;;2.87;0.50;;;17.30;95.00;;;;;;4956324;28;20296;-76
2023/05/17 14:49:51;;;;;;;2.47;0.50;;;17.30;95.40;;;;;;4956460;28;20291;-75
2023/05/17 14:52:18;;;;;;;5.17;0.70;;;17.20;94.80;;;;;;4956593;28;20326;-76
2023/05/17 14:54:45;;;;;;;4.63;0.63;;;17.20;95.20;;;;;;4956654;28;20239;-75
2023/05/17 14:57:13;;;;;;;6.50;0.83;;;17.50;95.60;;;;;;4956417;28;20247;-75
2023/05/17 14:59:40;;;;;;;1.80;0.70;;;17.60;96.40;;;;;;4955751;28;20667;-76
2023/05/17 15:02:07;;;;;;;5.63;0.60;;;17.70;96.30;;;;;;4955180;28;20232;-76
2023/05/17 15:04:34;;;;;;;3.80;0.63;;;17.60;95.30;;;;;;4955976;28;20214;-75
2023/05/17 15:07:01;;;;;;;1.93;0.60;;;17.50;94.60;;;;;;4956130;28;20575;-75
2023/05/17 15:09:29;;;;;;;1.80;0.60;;;17.40;95.10;;;;;;4956124;28;20215;-76
2023/05/17 15:11:56;;;;;;;3.67;0.60;;;17.30;94.90;;;;;;4955813;28;20726;-75
2023/05/17 15:14:25;;;;;;;4.50;0.83;;;17.40;95.70;;;;;;4955802;28;20247;-75
2023/05/17 15:16:52;;;;;;;4.13;0.70;;;17.30;95.00;;;;;;4955600;29;20232;-75
2023/05/17 15:19:19;;;;;;;4.17;0.80;;;17.20;95.20;;;;;;4955907;28;20256;-75
2023/05/17 15:21:46;;;;;;;4.87;0.80;;;17.20;94.80;;;;;;4955714;28;20224;-75
2023/05/17 15:24:14;;;;;;;1.90;0.60;;;17.40;94.90;;;;;;4955908;28;20216;-75
2023/05/17 15:26:41;;;;;;;2.70;1.20;;;17.40;94.60;;;;;;4955658;28;20299;-75
2023/05/17 15:29:08;;;;;;;3.03;0.70;;;17.50;95.50;;;;;;4956006;28;20227;-74
2023/05/17 15:31:36;;;;;;;3.57;1.00;;;17.50;95.60;;;;;;4955369;28;20330;-75
2023/05/17 15:34:04;;;;;;;2.80;0.80;;;17.40;95.40;;;;;;4955339;28;20599;-75
2023/05/17 15:36:31;;;;;;;1.87;0.60;;;17.30;95.80;;;;;;4955475;28;20207;-76
2023/05/17 15:38:58;;;;;;;1.97;0.60;;;17.50;95.80;;;;;;4955573;28;20211;-75
2023/05/17 15:41:26;;;;;;;2.33;0.70;;;17.60;94.80;;;;;;4955242;28;20266;-75
2023/05/17 15:43:53;;;;;;;3.30;0.60;;;17.40;94.30;;;;;;4955394;28;20215;-75
2023/05/17 15:46:20;;;;;;;1.37;0.60;;;17.40;94.70;;;;;;4955201;28;20220;-75
2023/05/17 15:48:49;;;;;;;1.37;0.57;;;17.20;94.90;;;;;;4955294;28;20262;-75
2023/05/17 15:51:15;;;;;;;1.87;0.77;;;17.20;95.30;;;;;;4955118;28;20277;-74
2023/05/17 15:53:42;;;;;;;3.80;0.70;;;17.30;94.90;;;;;;4955147;28;20287;-75
2023/05/17 15:56:10;;;;;;;2.33;0.77;;;17.30;95.00;;;;;;4955194;29;20616;-75
2023/05/17 15:58:37;;;;;;;3.33;0.90;;;17.40;95.20;;;;;;4955084;28;20208;-75
2023/05/17 16:01:05;;;;;;;2.77;0.60;;;17.40;95.50;;;;;;4954759;28;20262;-76
2023/05/17 16:03:32;;;;;;;2.00;0.60;;;17.30;95.50;;;;;;4955050;28;20212;-75
2023/05/17 16:06:01;;;;;;;2.50;0.80;;;17.20;95.30;;;;;;4954911;28;20660;-75
2023/05/17 16:08:28;;;;;;;4.13;0.63;;;17.20;95.30;;;;;;4954801;28;20212;-75
2023/05/17 16:10:55;;;;;;;1.07;0.40;;;17.10;95.80;;;;;;4954774;28;20267;-75
2023/05/17 16:13:22;;;;;;;3.80;0.70;;;17.10;96.40;;;;;;4954564;28;20296;-75
2023/05/17 16:15:49;;;;;;;2.70;0.80;;;17.10;95.80;;;;;;4954953;28;20239;-76
2023/05/17 16:18:16;;;;;;;3.63;0.60;;;17.00;95.10;;;;;;4954639;28;20620;-76
2023/05/17 16:20:43;;;;;;;2.03;0.80;;;16.90;95.20;;;;;;4954829;28;20335;-75
2023/05/17 16:23:11;;;;;;;1.60;0.50;;;16.90;95.70;;;;;;4954993;28;20298;-74
2023/05/17 16:25:38;;;;;;;3.07;0.83;;;16.80;96.00;;;;;;4954335;28;20243;-74
2023/05/17 16:28:05;;;;;;;2.20;0.73;;;16.90;95.90;;;;;;4954850;28;20292;-75
2023/05/17 16:30:32;;;;;;;2.50;0.70;;;16.90;95.30;;;;;;4954452;28;20416;-75
2023/05/17 16:32:59;;;;;;;4.10;0.60;;;17.10;95.00;;;;;;4954463;28;20622;-75
2023/05/17 16:35:26;;;;;;;2.43;0.90;;;17.30;95.40;;;;;;4954904;28;20255;-74
2023/05/17 16:37:53;;;;;;;2.10;0.70;;;17.40;95.30;;;;;;4954358;28;20299;-75
2023/05/17 16:40:21;;;;;;;3.20;0.77;;;17.30;95.90;;;;;;4954423;28;20670;-74
2023/05/17 16:42:48;;;;;;;1.77;0.70;;;17.30;96.10;;;;;;4954283;28;20334;-75
2023/05/17 16:45:15;;;;;;;1.83;0.93;;;17.30;95.20;;;;;;4954915;28;20238;-75
2023/05/17 16:47:42;;;;;;;1.80;0.60;;;17.30;95.60;;;;;;4954559;28;20635;-75
2023/05/17 16:50:10;;;;;;;2.10;0.60;;;17.50;95.90;;;;;;4954532;28;20246;-75
2023/05/17 16:52:37;;;;;;;2.93;0.80;;;17.30;95.70;;;;;;4954171;28;20591;-74
2023/05/17 16:55:04;;;;;;;2.20;0.60;;;17.10;95.70;;;;;;4954694;28;20236;-74
2023/05/17 16:57:32;;;;;;;3.23;0.87;;;17.00;96.10;;;;;;4954858;28;20243;-75
2023/05/17 17:00:00;;;;;;;2.80;0.77;;;17.00;95.50;;;;;;4954656;28;20298;-76
2023/05/17 17:02:27;;;;;;;0.97;0.70;;;16.90;95.30;;;;;;4954535;28;20275;-75
2023/05/17 17:04:54;;;;;;;2.87;1.07;;;16.70;95.70;;;;;;4954397;29;20264;-75
2023/05/17 17:07:21;;;;;;;0.93;0.50;;;16.70;96.00;;;;;;4954260;28;20384;-75
2023/05/17 17:09:48;;;;;;;1.53;0.60;;;16.60;96.80;;;;;;4954690;28;20236;-75
2023/05/17 17:12:15;;;;;;;1.90;0.60;;;16.60;96.80;;;;;;4954357;28;20275;-75
2023/05/17 17:14:43;;;;;;;2.43;0.70;;;16.60;97.20;;;;;;4954113;29;20702;-74
2023/05/17 17:17:10;;;;;;;2.50;0.77;;;16.50;97.00;;;;;;4954092;28;20207;-75
2023/05/17 17:19:37;;;;;;;3.03;0.80;;;16.30;96.90;;;;;;4954565;29;20299;-75
2023/05/17 17:22:05;;;;;;;2.93;0.50;;;15.90;97.30;;;;;;4954238;28;20316;-75
2023/05/17 17:24:33;;;;;;;2.57;0.50;;;15.80;97.60;;;;;;4956012;28;20212;-75
2023/05/17 17:27:00;;;;;;;2.17;0.90;;;15.70;97.30;;;;;;4957933;29;20255;-75
2023/05/17 17:29:27;;;;;;;2.83;0.80;;;15.90;97.10;;;;;;4957672;28;20294;-75
2023/05/17 17:31:56;;;;;;;3.90;0.57;;;15.90;97.30;;;;;;4957254;28;20331;-75
2023/05/17 17:34:23;;;;;;;3.07;0.60;;;15.80;97.40;;;;;;4957613;28;20219;-76
2023/05/17 17:36:51;;;;;;;4.63;0.80;;;15.60;98.10;;;;;;4957793;28;20204;-75
2023/05/17 17:39:18;;;;;;;1.73;0.70;;;15.60;98.00;;;;;;4957446;28;20690;-75
2023/05/17 17:41:45;;;;;;;2.30;0.43;;;15.90;97.80;;;;;;4957465;28;20268;-76
2023/05/17 17:44:12;;;;;;;2.53;0.70;;;15.80;97.60;;;;;;4957756;29;20303;-76
2023/05/17 17:46:38;;;;;;;1.77;0.60;;;15.90;97.20;;;;;;4957118;29;20212;-76
2023/05/17 17:49:07;;;;;;;1.57;0.77;;;15.80;97.30;;;;;;4957334;28;20762;-75
2023/05/17 17:51:34;;;;;;;2.00;0.70;;;15.70;97.10;;;;;;4957260;28;20268;-75
2023/05/17 17:54:02;;;;;;;2.37;0.80;;;15.80;97.10;;;;;;4957179;28;20215;-75
2023/05/17 17:56:29;;;;;;;2.10;0.80;;;15.80;96.90;;;;;;4956911;28;20651;-75
2023/05/17 17:58:58;;;;;;;3.37;0.70;;;15.70;97.30;;;;;;4956965;28;20212;-75
2023/05/17 18:01:25;;;;;;;4.27;0.80;;;15.70;97.40;;;;;;4956820;28;20311;-75
2023/05/17 18:03:52;;;;;;;4.60;0.80;;;15.70;97.70;;;;;;4957447;28;20247;-75
2023/05/17 18:06:21;;;;;;;1.83;0.77;;;15.60;97.60;;;;;;4957192;28;20247;-75
2023/05/17 18:08:47;;;;;;;1.70;0.60;;;15.40;97.80;;;;;;4957312;29;20239;-76
2023/05/17 18:11:15;;;;;;;2.13;0.70;;;15.30;98.10;;;;;;4956736;28;20326;-75
2023/05/17 18:13:41;;;;;;;3.77;0.50;;;15.40;97.20;;;;;;4956847;28;20258;-75
2023/05/17 18:16:08;;;;;;;3.73;0.80;;;15.40;97.60;;;;;;4956878;28;20208;-75
2023/05/17 18:18:39;;;;;;;4.00;0.80;;;15.30;97.80;;;;;;4956921;29;20258;-74
2023/05/17 18:21:06;;;;;;;1.77;0.87;;;15.40;97.90;;;;;;4956995;28;20651;-75
2023/05/17 18:23:34;;;;;;;4.30;0.70;;;15.40;98.30;;;;;;4956787;29;20695;-75
2023/05/17 18:26:01;;;;;;;1.50;0.53;;;15.20;98.50;;;;;;4956946;28;20299;-75
2023/05/17 18:28:28;;;;;;;2.93;0.90;;;15.20;98.60;;;;;;4961140;28;20282;-75
2023/05/17 18:30:56;;;;;;;3.47;0.80;;;15.10;98.90;;;;;;4960344;29;20234;-75
2023/05/17 18:33:23;;;;;;;4.23;0.90;;;15.00;98.90;;;;;;4961072;29;20268;-75
2023/05/17 18:35:50;;;;;;;2.77;0.77;;;15.00;98.90;;;;;;4959856;28;20215;-74
2023/05/17 18:38:17;;;;;;;3.80;0.70;;;15.10;98.90;;;;;;4956810;28;20214;-75
2023/05/17 18:40:46;;;;;;;2.30;0.60;;;15.00;99.00;;;;;;4956524;28;20236;-75
2023/05/17 18:43:12;;;;;;;3.67;0.73;;;15.00;98.90;;;;;;4956728;29;20240;-75
2023/05/17 18:45:39;;;;;;;1.97;0.60;;;14.90;99.00;;;;;;4956203;28;20208;-75
2023/05/17 18:48:06;;;;;;;0.77;0.47;;;14.80;99.10;;;;;;4956619;29;20265;-75
2023/05/17 18:50:33;;;;;;;4.03;0.97;;;14.60;99.80;;;;;;4956235;29;20738;-75
2023/05/17 18:53:00;;;;;;;5.83;1.00;;;14.60;99.80;;;;;;4956417;28;20286;-75
2023/05/17 18:55:27;;;;;;;2.47;1.00;;;14.60;99.80;;;;;;4956587;28;20239;-74
2023/05/17 18:57:55;;;;;;;5.50;1.03;;;14.70;99.70;;;;;;4956435;28;20262;-75
2023/05/17 19:00:22;;;;;;;6.13;0.80;;;14.40;99.90;;;;;;4956791;28;20251;-75
2023/05/17 19:02:49;;;;;;;2.97;0.73;;;14.30;99.90;;;;;;4961724;28;20255;-74
2023/05/17 19:05:16;;;;;;;4.10;0.90;;;14.40;99.90;;;;;;4962176;28;20204;-75
2023/05/17 19:07:43;;;;;;;3.23;0.63;;;14.10;99.90;;;;;;4963008;29;20216;-75
2023/05/17 19:10:11;;;;;;;3.60;0.97;;;14.20;99.90;;;;;;4962009;28;20295;-74
2023/05/17 19:12:38;;;;;;;1.13;0.70;;;14.20;99.90;;;;;;4962175;28;20247;-75
2023/05/17 19:15:08;;;;;;;2.60;0.90;;;14.00;99.90;;;;;;4962365;28;20207;-75
2023/05/17 19:17:35;;;;;;;4.83;0.90;;;14.00;99.90;;;;;;4961858;28;20668;-75
2023/05/17 19:20:03;;;;;;;3.30;0.90;;;13.90;99.90;;;;;;4961495;28;20282;-74
2023/05/17 19:22:30;;;;;;;6.50;0.87;;;14.00;99.90;;;;;;4956444;28;20263;-75
2023/05/17 19:24:57;;;;;;;4.50;0.93;;;13.90;99.90;;;;;;4956447;29;20521;-75
2023/05/17 19:27:24;;;;;;;2.47;0.73;;;13.60;99.90;;;;;;4956641;28;20259;-75
2023/05/17 19:29:50;;;;;;;3.57;0.87;;;13.60;99.90;;;;;;4956393;28;20647;-75
2023/05/17 19:32:21;;;;;;;2.17;0.67;;;13.50;99.90;;;;;;4956276;29;20271;-75
2023/05/17 19:34:48;;;;;;;5.47;1.00;;;13.50;99.90;;;;;;4956604;28;20219;-75
2023/05/17 19:37:15;;;;;;;3.00;0.90;;;13.60;99.90;;;;;;4956709;28;20250;-75
2023/05/17 19:39:42;;;;;;;1.90;0.90;;;13.50;99.90;;;;;;4955930;28;20236;-75
2023/05/17 19:42:09;;;;;;;2.93;1.00;;;13.50;99.90;;;;;;4955163;28;20691;-75
2023/05/17 19:44:36;;;;;;;5.27;0.90;;;13.20;99.90;;;;;;4955545;28;20235;-75
2023/05/17 19:47:03;;;;;;;3.40;1.00;;;13.20;99.90;;;;;;4954682;28;20250;-75
2023/05/17 19:49:31;;;;;;;3.23;0.70;;;13.10;99.90;;;;;;4955264;28;20208;-75
2023/05/17 19:51:59;;;;;;;2.10;0.63;;;13.10;99.90;;;;;;4955074;28;20255;-75
2023/05/17 19:54:28;;;;;;;1.20;0.80;;;13.10;99.90;;;;;;4955061;28;20227;-75
2023/05/17 19:56:54;;;;;;;3.53;1.00;;;13.20;99.90;;;;;;4955197;29;20243;-75
2023/05/17 19:59:21;;;;;;;4.53;1.50;;;13.20;99.90;;;;;;4955360;28;20711;-75
2023/05/17 20:01:48;;;;;;;1.97;0.87;;;13.00;99.90;;;;;;4955165;28;20259;-75
2023/05/17 20:04:15;;;;;;;2.33;0.83;;;12.80;99.90;;;;;;4955732;28;20250;-75
2023/05/17 20:06:43;;;;;;;3.93;1.07;;;12.70;99.90;;;;;;4955541;28;20216;-75